createdAt,value
2023-04-27T00:01:14.461Z,541.15
2023-04-27T00:03:42.083Z,675.47
2023-04-27T00:06:09.780Z,600.13
2023-04-27T00:08:37.005Z,674.25
2023-04-27T00:11:03.769Z,570.97
2023-04-27T00:13:30.509Z,612.90
2023-04-27T00:15:56.998Z,592.00
2023-04-27T00:18:23.540Z,621.22
2023-04-27T00:20:50.077Z,746.78
2023-04-27T00:23:16.757Z,737.83
2023-04-27T00:25:43.274Z,652.92
2023-04-27T00:28:10.925Z,724.45
2023-04-27T00:30:37.699Z,624.15
2023-04-27T00:33:04.306Z,510.52
2023-04-27T00:35:32.728Z,605.67
2023-04-27T00:37:59.229Z,601.88
2023-04-27T00:40:26.787Z,480.40
2023-04-27T00:42:53.349Z,564.33
2023-04-27T00:45:19.851Z,434.13
2023-04-27T00:47:46.406Z,397.42
2023-04-27T00:50:13.110Z,293.42
2023-04-27T00:52:39.740Z,422.13
2023-04-27T00:55:07.141Z,337.77
2023-04-27T00:57:34.237Z,511.15
2023-04-27T01:00:02.144Z,440.23
2023-04-27T01:02:30.062Z,461.67
2023-04-27T01:07:26.728Z,485.52
2023-04-27T01:09:53.414Z,501.25
2023-04-27T01:12:19.882Z,511.88
2023-04-27T01:17:14.538Z,622.58
2023-04-27T01:19:41.145Z,509.27
2023-04-27T01:22:07.771Z,441.15
2023-04-27T01:24:34.272Z,458.98
2023-04-27T01:27:01.928Z,506.70
2023-04-27T01:29:28.552Z,484.95
2023-04-27T01:31:55.081Z,474.90
2023-04-27T01:34:22.832Z,437.55
2023-04-27T01:36:49.353Z,513.28
2023-04-27T01:39:16.315Z,405.80
2023-04-27T01:41:42.868Z,534.10
2023-04-27T01:44:09.682Z,430.33
2023-04-27T01:46:36.328Z,383.30
2023-04-27T01:49:02.915Z,173.23
2023-04-27T01:51:29.421Z,53.55
2023-04-27T01:53:55.954Z,39.38
2023-04-27T01:56:22.473Z,35.55
2023-04-27T01:58:49.013Z,46.58
2023-04-27T02:01:15.724Z,34.58
2023-04-27T02:03:42.677Z,13.50
2023-04-27T02:06:09.425Z,6.75
2023-04-27T02:08:35.984Z,7.57
2023-04-27T02:11:02.479Z,7.03
2023-04-27T02:13:28.988Z,5.05
2023-04-27T02:15:56.165Z,5.95
2023-04-27T02:18:23.002Z,8.70
2023-04-27T02:20:49.497Z,7.93
2023-04-27T02:23:16.154Z,7.70
2023-04-27T02:25:46.516Z,7.00
2023-04-27T02:28:14.018Z,7.95
2023-04-27T02:30:40.948Z,7.28
2023-04-27T02:33:07.689Z,6.95
2023-04-27T02:35:34.270Z,6.45
2023-04-27T02:38:00.732Z,5.68
2023-04-27T02:40:27.252Z,7.13
2023-04-27T02:42:53.736Z,7.95
2023-04-27T02:45:20.345Z,6.13
2023-04-27T02:47:46.877Z,5.30
2023-04-27T02:50:13.782Z,6.68
2023-04-27T02:52:40.345Z,5.90
2023-04-27T02:55:07.122Z,5.70
2023-04-27T02:57:33.673Z,9.48
2023-04-27T03:00:00.470Z,7.68
2023-04-27T03:02:27.626Z,29.42
2023-04-27T03:04:57.496Z,35.78
2023-04-27T03:07:24.079Z,56.63
2023-04-27T03:09:50.595Z,58.50
2023-04-27T03:12:17.418Z,50.85
2023-04-27T03:14:43.948Z,71.15
2023-04-27T03:17:10.489Z,303.35
2023-04-27T03:19:37.079Z,126.35
2023-04-27T03:22:03.801Z,41.95
2023-04-27T03:24:30.887Z,35.78
2023-04-27T03:26:57.363Z,41.92
2023-04-27T03:29:23.902Z,58.47
2023-04-27T03:31:50.592Z,39.83
2023-04-27T03:34:17.158Z,16.27
2023-04-27T03:36:43.740Z,24.50
2023-04-27T03:39:10.219Z,12.05
2023-04-27T03:41:36.777Z,12.25
2023-04-27T03:44:03.335Z,10.02
2023-04-27T03:46:30.187Z,8.88
2023-04-27T03:48:56.847Z,7.60
2023-04-27T03:51:23.470Z,6.80
2023-04-27T03:53:50.404Z,8.05
2023-04-27T03:56:17.222Z,10.10
2023-04-27T03:58:44.569Z,5.70
2023-04-27T04:01:14.803Z,6.95
2023-04-27T04:03:41.517Z,6.43
2023-04-27T04:06:08.817Z,8.23
2023-04-27T04:08:35.366Z,9.75
2023-04-27T04:11:01.928Z,6.70
2023-04-27T04:13:28.962Z,7.85
2023-04-27T04:16:06.937Z,6.00
2023-04-27T04:18:34.705Z,6.35
2023-04-27T04:21:01.259Z,6.07
2023-04-27T04:23:27.857Z,6.95
2023-04-27T04:25:56.629Z,7.05
2023-04-27T04:28:24.999Z,7.10
2023-04-27T04:30:52.358Z,9.70
2023-04-27T04:33:18.963Z,12.48
2023-04-27T04:35:46.102Z,11.95
2023-04-27T04:38:12.942Z,6.93
2023-04-27T04:40:41.961Z,8.43
2023-04-27T04:43:09.556Z,6.95
2023-04-27T04:45:36.526Z,9.80
2023-04-27T04:48:04.063Z,9.23
2023-04-27T04:50:30.736Z,9.52
2023-04-27T04:52:57.251Z,9.15
2023-04-27T04:55:26.109Z,11.90
2023-04-27T04:57:52.683Z,9.63
2023-04-27T05:00:19.314Z,20.42
2023-04-27T05:02:45.967Z,29.70
2023-04-27T05:05:12.577Z,51.25
2023-04-27T05:07:39.271Z,70.97
2023-04-27T05:10:06.386Z,81.93
2023-04-27T05:12:33.152Z,153.88
2023-04-27T05:14:59.659Z,387.60
2023-04-27T05:17:26.563Z,223.48
2023-04-27T05:19:53.264Z,303.60
2023-04-27T05:22:19.967Z,400.02
2023-04-27T05:24:46.532Z,293.70
2023-04-27T05:27:14.709Z,201.60
2023-04-27T05:29:41.206Z,97.72
2023-04-27T05:32:07.920Z,102.43
2023-04-27T05:34:34.480Z,59.88
2023-04-27T05:37:01.360Z,96.07
2023-04-27T05:39:27.895Z,114.43
2023-04-27T05:41:54.494Z,110.45
2023-04-27T05:44:21.043Z,124.75
2023-04-27T05:46:47.529Z,160.60
2023-04-27T05:49:14.137Z,165.35
2023-04-27T05:51:41.329Z,160.10
2023-04-27T05:54:08.526Z,123.30
2023-04-27T05:56:35.103Z,138.00
2023-04-27T05:59:02.663Z,148.23
2023-04-27T06:01:29.471Z,144.98
2023-04-27T06:03:56.138Z,142.80
2023-04-27T06:06:22.795Z,157.15
2023-04-27T06:08:49.309Z,166.13
2023-04-27T06:11:16.397Z,159.98
2023-04-27T06:13:43.409Z,150.50
2023-04-27T06:16:09.976Z,139.45
2023-04-27T06:18:36.548Z,140.50
2023-04-27T06:21:03.577Z,136.70
2023-04-27T06:23:30.133Z,141.20
2023-04-27T06:25:57.138Z,144.10
2023-04-27T06:28:23.653Z,139.77
2023-04-27T06:30:50.147Z,137.77
2023-04-27T06:33:16.729Z,125.50
2023-04-27T06:35:45.737Z,104.57
2023-04-27T06:38:13.865Z,86.43
2023-04-27T06:40:40.390Z,88.35
2023-04-27T06:43:06.875Z,79.20
2023-04-27T06:45:33.362Z,90.57
2023-04-27T06:47:59.874Z,93.25
2023-04-27T06:50:26.703Z,89.25
2023-04-27T06:52:53.401Z,80.03
2023-04-27T06:55:20.041Z,63.28
2023-04-27T06:57:46.518Z,73.90
2023-04-27T07:00:13.567Z,89.07
2023-04-27T07:02:40.129Z,99.15
2023-04-27T07:05:06.855Z,90.28
2023-04-27T07:07:33.370Z,102.90
2023-04-27T07:09:59.854Z,126.00
2023-04-27T07:12:26.883Z,134.10
2023-04-27T07:14:53.390Z,127.55
2023-04-27T07:17:20.080Z,132.63
2023-04-27T07:19:46.737Z,123.20
2023-04-27T07:22:13.322Z,133.90
2023-04-27T07:24:39.866Z,131.98
2023-04-27T07:27:07.155Z,119.70
2023-04-27T07:29:34.009Z,128.05
2023-04-27T07:32:00.998Z,127.72
2023-04-27T07:34:32.848Z,99.43
2023-04-27T07:37:05.492Z,108.00
2023-04-27T07:39:32.005Z,136.80
2023-04-27T07:41:58.471Z,139.35
2023-04-27T07:44:24.981Z,142.65
2023-04-27T07:46:58.511Z,137.15
2023-04-27T07:49:26.182Z,153.30
2023-04-27T07:51:52.707Z,155.52
2023-04-27T07:54:19.225Z,172.52
2023-04-27T07:56:45.858Z,179.20
2023-04-27T07:59:12.951Z,194.68
2023-04-27T08:01:39.799Z,200.68
2023-04-27T08:04:06.682Z,352.63
2023-04-27T08:06:33.824Z,316.13
2023-04-27T08:09:01.983Z,348.02
2023-04-27T08:11:28.516Z,327.67
2023-04-27T08:13:54.978Z,369.05
2023-04-27T08:16:21.501Z,301.92
2023-04-27T08:18:49.504Z,356.65
2023-04-27T08:21:16.197Z,363.80
2023-04-27T08:23:43.794Z,334.20
2023-04-27T08:26:14.849Z,223.38
2023-04-27T08:28:41.312Z,309.30
2023-04-27T08:31:07.833Z,363.20
2023-04-27T08:33:34.392Z,234.48
2023-04-27T08:36:01.084Z,435.08
2023-04-27T08:38:27.665Z,412.67
2023-04-27T08:40:54.261Z,462.17
2023-04-27T08:43:20.812Z,451.73
2023-04-27T08:45:50.143Z,496.77
2023-04-27T08:48:16.813Z,521.35
2023-04-27T08:50:44.838Z,625.15
2023-04-27T08:53:21.458Z,592.33
2023-04-27T08:55:48.407Z,611.25
2023-04-27T08:58:14.896Z,575.83
2023-04-27T09:00:43.622Z,567.28
2023-04-27T09:03:26.039Z,552.17
2023-04-27T09:06:04.470Z,622.15
2023-04-27T09:08:46.381Z,611.88
2023-04-27T09:11:16.558Z,802.63
2023-04-27T09:13:45.258Z,822.55
2023-04-27T09:16:15.099Z,829.55
2023-04-27T09:18:43.512Z,798.30
2023-04-27T09:21:10.088Z,798.47
2023-04-27T09:23:38.609Z,773.47
2023-04-27T09:26:09.803Z,769.78
2023-04-27T09:28:40.302Z,830.85
2023-04-27T09:31:09.265Z,725.15
2023-04-27T09:33:36.663Z,558.97
2023-04-27T09:36:06.780Z,728.00
2023-04-27T09:38:33.485Z,624.25
2023-04-27T09:41:00.486Z,730.60
2023-04-27T09:43:28.795Z,818.88
2023-04-27T09:45:55.717Z,882.40
2023-04-27T09:48:23.872Z,859.72
2023-04-27T09:50:51.920Z,765.20
2023-04-27T09:53:26.443Z,775.03
2023-04-27T09:56:11.437Z,802.67
2023-04-27T09:59:07.672Z,719.80
2023-04-27T10:01:47.633Z,747.55
2023-04-27T10:04:42.832Z,756.30
2023-04-27T10:07:12.848Z,656.25
2023-04-27T10:09:45.183Z,657.10
2023-04-27T10:12:14.675Z,665.92
2023-04-27T10:14:51.984Z,577.30
2023-04-27T10:17:19.796Z,611.80
2023-04-27T10:22:24.986Z,121.90
2023-04-27T10:24:52.156Z,153.50
2023-04-27T10:27:21.666Z,343.10
2023-04-27T10:29:49.614Z,6.55
2023-04-27T10:32:26.345Z,46.30
2023-04-27T10:35:05.164Z,69.40
2023-04-27T10:37:42.340Z,108.70
2023-04-27T10:40:19.300Z,175.65
2023-04-27T10:42:49.198Z,298.55
2023-04-27T10:45:28.458Z,391.52
2023-04-27T10:48:01.117Z,242.73
2023-04-27T10:50:28.088Z,355.27
2023-04-27T10:52:54.606Z,578.08
2023-04-27T10:55:22.347Z,632.10
2023-04-27T10:57:51.126Z,580.90
2023-04-27T11:00:35.155Z,564.65
2023-04-27T11:03:12.584Z,612.00
2023-04-27T11:05:40.425Z,488.00
2023-04-27T11:08:08.259Z,649.97
2023-04-27T11:10:35.896Z,632.38
2023-04-27T11:13:10.195Z,632.47
2023-04-27T11:15:47.620Z,772.97
2023-04-27T11:18:15.714Z,743.85
2023-04-27T11:20:48.588Z,1045.78
2023-04-27T11:23:28.805Z,1073.85
2023-04-27T11:25:56.425Z,1112.95
2023-04-27T11:28:24.175Z,1171.30
2023-04-27T11:31:00.750Z,1142.55
2023-04-27T11:33:27.954Z,1192.38
2023-04-27T11:35:54.546Z,954.53
2023-04-27T11:38:21.931Z,865.60
2023-04-27T11:43:28.481Z,1095.85
2023-04-27T11:45:56.153Z,1342.25
2023-04-27T11:48:23.419Z,1419.85
2023-04-27T11:50:50.820Z,1467.20
2023-04-27T11:53:19.000Z,1019.47
2023-04-27T11:55:52.546Z,1002.45
2023-04-27T11:58:19.200Z,1118.00
2023-04-27T12:00:47.524Z,1280.72
2023-04-27T12:03:14.257Z,1212.88
2023-04-27T12:05:49.331Z,1189.60
2023-04-27T12:08:17.043Z,1303.13
2023-04-27T12:10:44.343Z,1323.82
2023-04-27T12:13:11.810Z,1308.20
2023-04-27T12:15:39.036Z,1254.78
2023-04-27T12:18:06.257Z,1261.15
2023-04-27T12:20:33.992Z,1244.80
2023-04-27T12:23:00.748Z,1286.15
2023-04-27T12:25:27.248Z,1279.57
2023-04-27T12:27:54.281Z,1267.20
2023-04-27T12:30:23.158Z,1374.50
2023-04-27T12:32:49.641Z,1280.43
2023-04-27T12:35:16.209Z,1362.78
2023-04-27T12:37:42.872Z,1444.75
2023-04-27T12:40:10.016Z,1361.40
2023-04-27T12:42:36.610Z,1474.22
2023-04-27T12:47:53.907Z,658.80
2023-04-27T12:50:18.571Z,1152.97
2023-04-27T12:52:45.166Z,1188.47
2023-04-27T12:55:24.817Z,938.38
2023-04-27T12:57:58.268Z,1290.57
2023-04-27T13:00:25.278Z,1062.68
2023-04-27T13:02:52.765Z,1071.45
2023-04-27T13:05:19.904Z,1436.50
2023-04-27T13:07:46.718Z,749.70
2023-04-27T13:10:13.225Z,507.92
2023-04-27T13:12:39.710Z,559.70
2023-04-27T13:15:07.804Z,541.03
2023-04-27T13:17:34.383Z,580.65
2023-04-27T13:20:01.036Z,556.42
2023-04-27T13:22:28.017Z,562.80
2023-04-27T13:24:54.873Z,563.75
2023-04-27T13:27:22.479Z,560.97
2023-04-27T13:29:51.164Z,553.85
2023-04-27T13:32:18.610Z,554.38
2023-04-27T13:34:45.425Z,561.65
2023-04-27T13:37:12.176Z,553.17
2023-04-27T13:39:38.696Z,563.38
2023-04-27T13:42:06.198Z,551.90
2023-04-27T13:44:32.860Z,473.85
2023-04-27T13:56:45.673Z,366.15
2023-04-27T13:59:12.475Z,364.55
2023-04-27T14:04:06.787Z,374.90
2023-04-27T14:06:33.436Z,394.40
2023-04-27T14:16:19.329Z,372.80
2023-04-27T14:18:45.913Z,391.00
2023-04-27T14:21:12.531Z,329.60
2023-04-27T14:28:32.351Z,334.25
2023-04-27T14:30:59.259Z,350.00
2023-04-27T14:33:25.936Z,373.40
2023-04-27T14:35:52.424Z,430.10
2023-04-27T14:38:18.895Z,305.05
2023-04-27T14:40:45.759Z,538.80
2023-04-27T14:43:12.255Z,568.63
2023-04-27T14:45:50.106Z,449.55
2023-04-27T14:48:18.164Z,566.93
2023-04-27T14:50:44.885Z,512.23
2023-04-27T14:53:11.344Z,448.05
2023-04-27T14:55:37.872Z,911.35
2023-04-27T14:58:04.369Z,524.10
2023-04-27T15:00:31.477Z,570.37
2023-04-27T15:02:58.026Z,572.65
2023-04-27T15:05:25.159Z,602.20
2023-04-27T15:07:51.654Z,591.50
2023-04-27T15:10:18.283Z,589.75
2023-04-27T15:12:45.485Z,592.25
2023-04-27T15:15:12.900Z,591.45
2023-04-27T15:17:39.625Z,592.27
2023-04-27T15:20:06.858Z,564.80
2023-04-27T15:22:33.506Z,609.30
2023-04-27T15:25:00.045Z,591.27
2023-04-27T15:27:26.532Z,592.87
2023-04-27T15:29:58.034Z,599.30
2023-04-27T15:32:29.786Z,577.85
2023-04-27T15:34:59.930Z,570.55
2023-04-27T15:37:28.092Z,595.00
2023-04-27T15:39:55.243Z,575.55
2023-04-27T15:42:21.799Z,578.45
2023-04-27T15:44:48.329Z,553.30
2023-04-27T15:47:15.319Z,547.20
2023-04-27T15:49:53.668Z,531.10
2023-04-27T15:52:23.055Z,540.70
2023-04-27T15:54:49.547Z,533.45
2023-04-27T15:57:16.157Z,552.05
2023-04-27T15:59:42.656Z,548.20
2023-04-27T16:02:09.356Z,543.92
2023-04-27T16:04:35.903Z,547.10
2023-04-27T16:07:02.515Z,540.30
2023-04-27T16:09:29.081Z,543.30
2023-04-27T16:11:55.815Z,539.67
2023-04-27T16:14:22.332Z,560.13
2023-04-27T16:16:48.831Z,542.25
2023-04-27T16:19:16.034Z,538.67
2023-04-27T16:21:42.761Z,536.40
2023-04-27T16:24:09.291Z,540.60
2023-04-27T16:26:35.736Z,540.85
2023-04-27T16:29:02.219Z,570.20
2023-04-27T16:31:28.927Z,570.05
2023-04-27T16:33:55.472Z,572.40
2023-04-27T16:36:22.040Z,567.50
2023-04-27T16:38:48.508Z,564.15
2023-04-27T16:41:15.001Z,401.75
2023-04-27T16:43:41.496Z,558.75
2023-04-27T16:46:09.977Z,552.92
2023-04-27T16:48:36.700Z,514.73
2023-04-27T16:51:03.803Z,526.53
2023-04-27T16:53:30.268Z,525.30
2023-04-27T16:55:59.502Z,532.50
2023-04-27T16:58:26.020Z,537.13
2023-04-27T17:00:52.567Z,547.10
2023-04-27T17:03:19.129Z,537.92
2023-04-27T17:05:45.816Z,483.42
2023-04-27T17:08:13.319Z,495.50
2023-04-27T17:10:39.881Z,514.70
2023-04-27T17:13:07.692Z,515.92
2023-04-27T17:15:34.267Z,522.80
2023-04-27T17:18:04.500Z,543.80
2023-04-27T17:20:31.211Z,532.80
2023-04-27T17:22:57.924Z,532.22
2023-04-27T17:25:24.485Z,535.87
2023-04-27T17:27:51.259Z,470.57
2023-04-27T17:30:17.782Z,506.83
2023-04-27T17:32:44.351Z,539.00
2023-04-27T17:35:11.571Z,529.30
2023-04-27T17:37:38.103Z,528.50
2023-04-27T17:40:07.868Z,542.10
2023-04-27T17:42:34.365Z,539.50
2023-04-27T17:45:01.043Z,540.25
2023-04-27T17:47:27.785Z,475.50
2023-04-27T17:49:54.498Z,479.45
2023-04-27T17:52:20.996Z,489.40
2023-04-27T17:54:48.405Z,490.33
2023-04-27T17:57:14.898Z,476.17
2023-04-27T17:59:41.488Z,486.60
2023-04-27T18:02:08.159Z,493.27
2023-04-27T18:04:34.996Z,546.30
2023-04-27T18:07:01.634Z,534.30
2023-04-27T18:09:29.428Z,559.50
2023-04-27T18:11:57.262Z,553.97
2023-04-27T18:14:23.757Z,541.88
2023-04-27T18:16:50.517Z,541.30
2023-04-27T18:19:17.456Z,545.22
2023-04-27T18:21:44.132Z,542.35
2023-04-27T18:24:10.639Z,544.60
2023-04-27T18:26:37.323Z,538.80
2023-04-27T18:29:03.944Z,524.55
2023-04-27T18:31:30.433Z,532.25
2023-04-27T18:33:56.985Z,528.17
2023-04-27T18:36:25.576Z,526.95
2023-04-27T18:38:52.195Z,539.70
2023-04-27T18:41:19.277Z,553.17
2023-04-27T18:43:45.941Z,532.00
2023-04-27T18:46:12.527Z,541.13
2023-04-27T18:48:39.074Z,552.47
2023-04-27T18:51:05.556Z,541.60
2023-04-27T18:53:32.092Z,549.10
2023-04-27T18:55:58.722Z,537.50
2023-04-27T18:58:25.289Z,532.97
2023-04-27T19:00:52.148Z,528.25
2023-04-27T19:03:19.202Z,529.03
2023-04-27T19:05:46.101Z,530.45
2023-04-27T19:08:12.875Z,534.25
2023-04-27T19:10:42.517Z,532.13
2023-04-27T19:13:09.121Z,553.15
2023-04-27T19:15:35.776Z,549.85
2023-04-27T19:18:10.665Z,548.83
2023-04-27T19:20:39.012Z,559.55
2023-04-27T19:23:05.839Z,544.90
2023-04-27T19:25:32.535Z,553.40
2023-04-27T19:27:59.270Z,521.33
2023-04-27T19:30:26.317Z,554.25
2023-04-27T19:32:52.909Z,432.53
2023-04-27T19:35:20.365Z,487.80
2023-04-27T19:37:46.895Z,505.60
2023-04-27T19:40:13.674Z,524.53
2023-04-27T19:42:40.353Z,577.00
2023-04-27T19:45:07.374Z,578.35
2023-04-27T19:47:33.997Z,551.30
2023-04-27T19:50:00.592Z,571.95
2023-04-27T19:52:27.195Z,554.67
2023-04-27T19:54:54.536Z,525.25
2023-04-27T19:57:21.610Z,522.40
2023-04-27T19:59:48.422Z,540.38
2023-04-27T20:02:15.400Z,549.17
2023-04-27T20:04:42.213Z,584.38
2023-04-27T20:07:09.625Z,556.95
2023-04-27T20:09:36.857Z,571.35
2023-04-27T20:12:04.195Z,565.95
2023-04-27T20:14:33.606Z,548.17
2023-04-27T20:17:00.549Z,546.00
2023-04-27T20:19:27.168Z,543.50
2023-04-27T20:21:54.177Z,542.50
2023-04-27T20:24:20.806Z,539.67
2023-04-27T20:26:47.427Z,524.77
2023-04-27T20:29:14.141Z,543.10
2023-04-27T20:31:41.103Z,540.45
2023-04-27T20:34:07.769Z,532.75
2023-04-27T20:36:34.323Z,530.40
2023-04-27T20:39:00.912Z,531.10
2023-04-27T20:41:27.890Z,532.70
2023-04-27T20:43:54.368Z,531.10
2023-04-27T20:46:21.034Z,530.85
2023-04-27T20:48:47.575Z,532.10
2023-04-27T20:51:14.106Z,509.95
2023-04-27T20:53:40.806Z,522.65
2023-04-27T20:56:07.366Z,529.33
2023-04-27T20:58:33.904Z,532.77
2023-04-27T21:01:00.460Z,529.15
2023-04-27T21:03:27.151Z,536.95
2023-04-27T21:05:54.234Z,540.45
2023-04-27T21:08:20.733Z,536.30
2023-04-27T21:10:47.252Z,539.07
2023-04-27T21:13:13.930Z,540.92
2023-04-27T21:15:40.732Z,525.67
2023-04-27T21:18:13.498Z,539.07
2023-04-27T21:20:45.654Z,543.33
2023-04-27T21:23:14.583Z,535.20
2023-04-27T21:25:45.185Z,536.87
2023-04-27T21:28:11.896Z,539.65
2023-04-27T21:30:38.442Z,537.55
2023-04-27T21:33:05.124Z,538.83
2023-04-27T21:35:31.922Z,538.95
2023-04-27T21:37:58.636Z,533.10
2023-04-27T21:40:25.159Z,532.00
2023-04-27T21:42:52.549Z,526.30
2023-04-27T21:45:19.327Z,526.35
2023-04-27T21:47:46.014Z,535.35
2023-04-27T21:50:12.873Z,545.00
2023-04-27T21:52:39.384Z,546.97
2023-04-27T21:55:06.004Z,550.35
2023-04-27T21:57:32.631Z,549.30
2023-04-27T21:59:59.561Z,549.90
2023-04-27T22:02:26.281Z,541.90
2023-04-27T22:04:53.053Z,544.50
2023-04-27T22:07:19.591Z,541.63
2023-04-27T22:09:46.312Z,545.00
2023-04-27T22:12:12.836Z,538.67
2023-04-27T22:14:39.373Z,546.97
2023-04-27T22:17:05.875Z,552.70
2023-04-27T22:19:32.372Z,552.15
2023-04-27T22:21:58.859Z,550.20
2023-04-27T22:24:25.460Z,547.57
2023-04-27T22:26:52.109Z,546.90
2023-04-27T22:29:18.608Z,545.80
2023-04-27T22:31:45.528Z,548.00
2023-04-27T22:34:12.904Z,500.60
2023-04-27T22:36:39.589Z,528.90
2023-04-27T22:39:07.152Z,530.35
2023-04-27T22:41:34.075Z,532.00
2023-04-27T22:44:00.669Z,517.67
2023-04-27T22:46:27.178Z,533.35
2023-04-27T22:48:53.940Z,538.40
2023-04-27T22:51:21.595Z,536.20
2023-04-27T22:53:48.752Z,536.75
2023-04-27T22:56:15.246Z,533.83
2023-04-27T22:58:41.724Z,534.60
2023-04-27T23:01:08.425Z,539.53
2023-04-27T23:03:35.289Z,533.77
2023-04-27T23:06:01.892Z,538.90
2023-04-27T23:08:28.926Z,531.70
2023-04-27T23:10:56.228Z,535.97
2023-04-27T23:13:26.670Z,535.35
2023-04-27T23:15:56.812Z,564.60
2023-04-27T23:18:23.711Z,539.63
2023-04-27T23:20:55.996Z,542.43
2023-04-27T23:23:22.502Z,537.22
2023-04-27T23:25:49.125Z,517.00
2023-04-27T23:28:15.730Z,545.20
2023-04-27T23:30:42.259Z,548.95
2023-04-27T23:33:08.781Z,551.65
2023-04-27T23:35:35.255Z,544.90
2023-04-27T23:38:01.779Z,544.95
2023-04-27T23:40:28.293Z,553.15
2023-04-27T23:42:55.718Z,556.95
2023-04-27T23:45:22.181Z,560.30
2023-04-27T23:47:48.685Z,535.38
2023-04-27T23:50:15.607Z,543.20
2023-04-27T23:52:42.634Z,538.97
2023-04-27T23:55:09.447Z,530.80
2023-04-27T23:57:36.115Z,530.45
